sensor_id;sensor_type;location;lat;lon;timestamp;temperature;humidity
6810;DHT22;3443;48.812;9.112;2023-02-22T00:00:36;5.10;99.90
6810;DHT22;3443;48.812;9.112;2023-02-22T00:03:22;5.10;99.90
6810;DHT22;3443;48.812;9.112;2023-02-22T00:05:56;5.10;99.90
6810;DHT22;3443;48.812;9.112;2023-02-22T00:08:29;5.20;99.90
6810;DHT22;3443;48.812;9.112;2023-02-22T00:10:59;5.10;99.90
6810;DHT22;3443;48.812;9.112;2023-02-22T00:13:26;5.10;99.90
6810;DHT22;3443;48.812;9.112;2023-02-22T00:15:57;5.10;99.90
6810;DHT22;3443;48.812;9.112;2023-02-22T00:18:23;5.00;99.90
6810;DHT22;3443;48.812;9.112;2023-02-22T00:20:52;5.10;99.90
6810;DHT22;3443;48.812;9.112;2023-02-22T00:23:21;5.00;99.90
6810;DHT22;3443;48.812;9.112;2023-02-22T00:25:48;5.10;99.90
6810;DHT22;3443;48.812;9.112;2023-02-22T00:28:18;5.00;99.90
6810;DHT22;3443;48.812;9.112;2023-02-22T00:30:44;5.10;99.90
6810;DHT22;3443;48.812;9.112;2023-02-22T00:33:12;5.00;99.90
6810;DHT22;3443;48.812;9.112;2023-02-22T00:35:38;5.00;99.90
6810;DHT22;3443;48.812;9.112;2023-02-22T00:38:04;5.00;99.90
6810;DHT22;3443;48.812;9.112;2023-02-22T00:40:31;5.00;99.90
6810;DHT22;3443;48.812;9.112;2023-02-22T00:42:59;5.00;99.90
6810;DHT22;3443;48.812;9.112;2023-02-22T00:45:27;5.00;99.90
6810;DHT22;3443;48.812;9.112;2023-02-22T00:47:53;4.90;99.90
6810;DHT22;3443;48.812;9.112;2023-02-22T00:50:23;4.90;99.90
6810;DHT22;3443;48.812;9.112;2023-02-22T00:52:49;4.90;99.90
6810;DHT22;3443;48.812;9.112;2023-02-22T00:55:18;4.90;99.90
6810;DHT22;3443;48.812;9.112;2023-02-22T00:57:44;4.90;99.90
6810;DHT22;3443;48.812;9.112;2023-02-22T01:00:24;4.90;99.90
6810;DHT22;3443;48.812;9.112;2023-02-22T01:02:51;4.80;99.90
6810;DHT22;3443;48.812;9.112;2023-02-22T01:05:19;4.80;99.90
6810;DHT22;3443;48.812;9.112;2023-02-22T01:07:46;4.80;99.90
6810;DHT22;3443;48.812;9.112;2023-02-22T01:10:11;4.70;99.90
6810;DHT22;3443;48.812;9.112;2023-02-22T01:12:37;4.80;99.90
6810;DHT22;3443;48.812;9.112;2023-02-22T01:15:05;4.80;99.90
6810;DHT22;3443;48.812;9.112;2023-02-22T01:17:35;4.80;99.90
6810;DHT22;3443;48.812;9.112;2023-02-22T01:20:00;4.80;99.90
6810;DHT22;3443;48.812;9.112;2023-02-22T01:22:26;4.80;99.90
6810;DHT22;3443;48.812;9.112;2023-02-22T01:24:52;4.80;99.90
6810;DHT22;3443;48.812;9.112;2023-02-22T01:27:19;4.70;99.90
6810;DHT22;3443;48.812;9.112;2023-02-22T01:29:47;4.60;99.90
6810;DHT22;3443;48.812;9.112;2023-02-22T01:32:14;4.70;99.90
6810;DHT22;3443;48.812;9.112;2023-02-22T01:34:40;4.60;99.90
6810;DHT22;3443;48.812;9.112;2023-02-22T01:37:06;4.60;99.90
6810;DHT22;3443;48.812;9.112;2023-02-22T01:39:32;4.60;99.90
6810;DHT22;3443;48.812;9.112;2023-02-22T01:41:58;4.50;99.90
6810;DHT22;3443;48.812;9.112;2023-02-22T01:44:29;4.50;99.90
6810;DHT22;3443;48.812;9.112;2023-02-22T01:46:56;4.50;99.90
6810;DHT22;3443;48.812;9.112;2023-02-22T01:49:25;4.50;99.90
6810;DHT22;3443;48.812;9.112;2023-02-22T01:51:54;4.50;99.90
6810;DHT22;3443;48.812;9.112;2023-02-22T01:54:28;4.50;99.90
6810;DHT22;3443;48.812;9.112;2023-02-22T01:59:43;4.40;99.90
6810;DHT22;3443;48.812;9.112;2023-02-22T02:02:11;4.40;99.90
6810;DHT22;3443;48.812;9.112;2023-02-22T02:04:37;4.40;99.90
6810;DHT22;3443;48.812;9.112;2023-02-22T02:07:08;4.40;99.90
6810;DHT22;3443;48.812;9.112;2023-02-22T02:09:39;4.40;99.90
6810;DHT22;3443;48.812;9.112;2023-02-22T02:12:08;4.40;99.90
6810;DHT22;3443;48.812;9.112;2023-02-22T02:14:36;4.40;99.90
6810;DHT22;3443;48.812;9.112;2023-02-22T02:17:07;4.30;99.90
6810;DHT22;3443;48.812;9.112;2023-02-22T02:22:20;4.30;99.90
6810;DHT22;3443;48.812;9.112;2023-02-22T02:30:58;4.20;99.90
6810;DHT22;3443;48.812;9.112;2023-02-22T02:33:57;4.20;99.90
6810;DHT22;3443;48.812;9.112;2023-02-22T02:36:53;4.30;99.90
6810;DHT22;3443;48.812;9.112;2023-02-22T02:40:03;4.20;99.90
6810;DHT22;3443;48.812;9.112;2023-02-22T02:42:40;4.20;99.90
6810;DHT22;3443;48.812;9.112;2023-02-22T02:45:11;4.20;99.90
6810;DHT22;3443;48.812;9.112;2023-02-22T02:47:43;4.20;99.90
6810;DHT22;3443;48.812;9.112;2023-02-22T02:50:23;4.20;99.90
6810;DHT22;3443;48.812;9.112;2023-02-22T02:52:53;4.20;99.90
6810;DHT22;3443;48.812;9.112;2023-02-22T02:55:20;4.20;99.90
6810;DHT22;3443;48.812;9.112;2023-02-22T02:57:45;4.20;99.90
6810;DHT22;3443;48.812;9.112;2023-02-22T03:00:14;4.10;99.90
6810;DHT22;3443;48.812;9.112;2023-02-22T03:08:50;4.10;99.90
6810;DHT22;3443;48.812;9.112;2023-02-22T03:11:27;4.10;99.90
6810;DHT22;3443;48.812;9.112;2023-02-22T03:19:25;4.00;99.90
6810;DHT22;3443;48.812;9.112;2023-02-22T03:25:16;4.00;99.90
6810;DHT22;3443;48.812;9.112;2023-02-22T03:27:53;4.00;99.90
6810;DHT22;3443;48.812;9.112;2023-02-22T03:30:35;4.00;99.90
6810;DHT22;3443;48.812;9.112;2023-02-22T03:33:08;4.00;99.90
6810;DHT22;3443;48.812;9.112;2023-02-22T03:35:42;4.00;99.90
6810;DHT22;3443;48.812;9.112;2023-02-22T03:38:11;4.00;99.90
6810;DHT22;3443;48.812;9.112;2023-02-22T03:40:41;4.00;99.90
6810;DHT22;3443;48.812;9.112;2023-02-22T03:43:29;4.00;99.90
6810;DHT22;3443;48.812;9.112;2023-02-22T03:45:56;3.90;99.90
6810;DHT22;3443;48.812;9.112;2023-02-22T03:51:17;3.90;99.90
6810;DHT22;3443;48.812;9.112;2023-02-22T03:53:43;3.90;99.90
6810;DHT22;3443;48.812;9.112;2023-02-22T03:56:12;3.90;99.90
6810;DHT22;3443;48.812;9.112;2023-02-22T03:58:40;3.90;99.90
6810;DHT22;3443;48.812;9.112;2023-02-22T04:01:09;3.90;99.90
6810;DHT22;3443;48.812;9.112;2023-02-22T04:03:35;3.90;99.90
6810;DHT22;3443;48.812;9.112;2023-02-22T04:06:00;3.90;99.90
6810;DHT22;3443;48.812;9.112;2023-02-22T04:08:26;3.80;99.90
6810;DHT22;3443;48.812;9.112;2023-02-22T04:10:51;3.80;99.90
6810;DHT22;3443;48.812;9.112;2023-02-22T04:13:18;3.90;99.90
6810;DHT22;3443;48.812;9.112;2023-02-22T04:15:43;3.90;99.90
6810;DHT22;3443;48.812;9.112;2023-02-22T04:18:09;3.90;99.90
6810;DHT22;3443;48.812;9.112;2023-02-22T04:20:34;3.90;99.90
6810;DHT22;3443;48.812;9.112;2023-02-22T04:23:00;3.90;99.90
6810;DHT22;3443;48.812;9.112;2023-02-22T04:25:25;3.80;99.90
6810;DHT22;3443;48.812;9.112;2023-02-22T04:27:51;3.80;99.90
6810;DHT22;3443;48.812;9.112;2023-02-22T04:30:19;3.80;99.90
6810;DHT22;3443;48.812;9.112;2023-02-22T04:32:45;3.80;99.90
6810;DHT22;3443;48.812;9.112;2023-02-22T04:35:11;3.80;99.90
6810;DHT22;3443;48.812;9.112;2023-02-22T04:37:36;3.80;99.90
6810;DHT22;3443;48.812;9.112;2023-02-22T04:40:04;3.80;99.90
6810;DHT22;3443;48.812;9.112;2023-02-22T04:42:34;3.80;99.90
6810;DHT22;3443;48.812;9.112;2023-02-22T04:45:00;3.70;99.90
6810;DHT22;3443;48.812;9.112;2023-02-22T04:47:26;3.70;99.90
6810;DHT22;3443;48.812;9.112;2023-02-22T04:49:51;3.70;99.90
6810;DHT22;3443;48.812;9.112;2023-02-22T04:52:17;3.70;99.90
6810;DHT22;3443;48.812;9.112;2023-02-22T04:54:42;3.80;99.90
6810;DHT22;3443;48.812;9.112;2023-02-22T04:57:08;3.80;99.90
6810;DHT22;3443;48.812;9.112;2023-02-22T04:59:34;3.80;99.90
6810;DHT22;3443;48.812;9.112;2023-02-22T05:01:59;3.70;99.90
6810;DHT22;3443;48.812;9.112;2023-02-22T05:04:25;3.70;99.90
6810;DHT22;3443;48.812;9.112;2023-02-22T05:06:50;3.60;99.90
6810;DHT22;3443;48.812;9.112;2023-02-22T05:09:16;3.60;99.90
6810;DHT22;3443;48.812;9.112;2023-02-22T05:11:42;3.60;99.90
6810;DHT22;3443;48.812;9.112;2023-02-22T05:14:07;3.60;99.90
6810;DHT22;3443;48.812;9.112;2023-02-22T05:16:33;3.60;99.90
6810;DHT22;3443;48.812;9.112;2023-02-22T05:18:58;3.60;99.90
6810;DHT22;3443;48.812;9.112;2023-02-22T05:21:24;3.50;99.90
6810;DHT22;3443;48.812;9.112;2023-02-22T05:23:50;3.50;99.90
6810;DHT22;3443;48.812;9.112;2023-02-22T05:26:15;3.50;99.90
6810;DHT22;3443;48.812;9.112;2023-02-22T05:28:41;3.50;99.90
6810;DHT22;3443;48.812;9.112;2023-02-22T05:31:07;3.40;99.90
6810;DHT22;3443;48.812;9.112;2023-02-22T05:33:33;3.40;99.90
6810;DHT22;3443;48.812;9.112;2023-02-22T05:35:58;3.30;99.90
6810;DHT22;3443;48.812;9.112;2023-02-22T05:38:24;3.30;99.90
6810;DHT22;3443;48.812;9.112;2023-02-22T05:40:50;3.30;99.90
6810;DHT22;3443;48.812;9.112;2023-02-22T05:43:15;3.30;99.90
6810;DHT22;3443;48.812;9.112;2023-02-22T05:45:41;3.30;99.90
6810;DHT22;3443;48.812;9.112;2023-02-22T05:48:07;3.40;99.90
6810;DHT22;3443;48.812;9.112;2023-02-22T05:50:33;3.30;99.90
6810;DHT22;3443;48.812;9.112;2023-02-22T05:52:58;3.30;99.90
6810;DHT22;3443;48.812;9.112;2023-02-22T05:55:24;3.30;99.90
6810;DHT22;3443;48.812;9.112;2023-02-22T05:57:51;3.30;99.90
6810;DHT22;3443;48.812;9.112;2023-02-22T06:00:28;3.30;99.90
6810;DHT22;3443;48.812;9.112;2023-02-22T06:03:02;3.30;99.90
6810;DHT22;3443;48.812;9.112;2023-02-22T06:05:28;3.30;99.90
6810;DHT22;3443;48.812;9.112;2023-02-22T06:07:54;3.30;99.90
6810;DHT22;3443;48.812;9.112;2023-02-22T06:10:21;3.30;99.90
6810;DHT22;3443;48.812;9.112;2023-02-22T06:12:48;3.30;99.90
6810;DHT22;3443;48.812;9.112;2023-02-22T06:15:15;3.30;99.90
6810;DHT22;3443;48.812;9.112;2023-02-22T06:17:41;3.30;99.90
6810;DHT22;3443;48.812;9.112;2023-02-22T06:20:09;3.30;99.90
6810;DHT22;3443;48.812;9.112;2023-02-22T06:22:34;3.30;99.90
6810;DHT22;3443;48.812;9.112;2023-02-22T06:25:02;3.30;99.90
6810;DHT22;3443;48.812;9.112;2023-02-22T06:27:31;3.30;99.90
6810;DHT22;3443;48.812;9.112;2023-02-22T06:29:58;3.30;99.90
6810;DHT22;3443;48.812;9.112;2023-02-22T06:32:24;3.30;99.90
6810;DHT22;3443;48.812;9.112;2023-02-22T06:34:49;3.30;99.90
6810;DHT22;3443;48.812;9.112;2023-02-22T06:37:15;3.30;99.90
6810;DHT22;3443;48.812;9.112;2023-02-22T06:39:41;3.40;99.90
6810;DHT22;3443;48.812;9.112;2023-02-22T06:42:06;3.40;99.90
6810;DHT22;3443;48.812;9.112;2023-02-22T06:44:32;3.50;99.90
6810;DHT22;3443;48.812;9.112;2023-02-22T06:46:58;3.50;99.90
6810;DHT22;3443;48.812;9.112;2023-02-22T06:49:24;3.50;99.90
6810;DHT22;3443;48.812;9.112;2023-02-22T06:51:51;3.60;99.90
6810;DHT22;3443;48.812;9.112;2023-02-22T06:54:17;3.60;99.90
6810;DHT22;3443;48.812;9.112;2023-02-22T06:56:42;3.70;99.90
6810;DHT22;3443;48.812;9.112;2023-02-22T06:59:08;3.70;99.90
6810;DHT22;3443;48.812;9.112;2023-02-22T07:01:34;3.70;99.90
6810;DHT22;3443;48.812;9.112;2023-02-22T07:03:59;3.80;99.90
6810;DHT22;3443;48.812;9.112;2023-02-22T07:06:25;3.80;99.90
6810;DHT22;3443;48.812;9.112;2023-02-22T07:08:50;3.80;99.90
6810;DHT22;3443;48.812;9.112;2023-02-22T07:11:17;3.90;99.90
6810;DHT22;3443;48.812;9.112;2023-02-22T07:13:42;3.90;99.90
6810;DHT22;3443;48.812;9.112;2023-02-22T07:16:08;4.00;99.90
6810;DHT22;3443;48.812;9.112;2023-02-22T07:18:33;4.00;99.90
6810;DHT22;3443;48.812;9.112;2023-02-22T07:20:59;4.10;99.90
6810;DHT22;3443;48.812;9.112;2023-02-22T07:23:25;4.10;99.90
6810;DHT22;3443;48.812;9.112;2023-02-22T07:25:51;4.20;99.90
6810;DHT22;3443;48.812;9.112;2023-02-22T07:28:16;4.20;99.90
6810;DHT22;3443;48.812;9.112;2023-02-22T07:30:42;4.20;99.90
6810;DHT22;3443;48.812;9.112;2023-02-22T07:33:09;4.20;99.90
6810;DHT22;3443;48.812;9.112;2023-02-22T07:35:43;4.30;99.90
6810;DHT22;3443;48.812;9.112;2023-02-22T07:38:12;4.40;99.90
6810;DHT22;3443;48.812;9.112;2023-02-22T07:40:38;4.40;99.90
6810;DHT22;3443;48.812;9.112;2023-02-22T07:45:41;4.60;99.90
6810;DHT22;3443;48.812;9.112;2023-02-22T07:48:07;4.60;99.90
6810;DHT22;3443;48.812;9.112;2023-02-22T07:50:33;4.70;99.90
6810;DHT22;3443;48.812;9.112;2023-02-22T07:53:02;4.80;99.90
6810;DHT22;3443;48.812;9.112;2023-02-22T07:55:29;4.90;99.90
6810;DHT22;3443;48.812;9.112;2023-02-22T07:57:57;4.90;99.90
6810;DHT22;3443;48.812;9.112;2023-02-22T08:00:37;5.00;99.90
6810;DHT22;3443;48.812;9.112;2023-02-22T08:03:09;5.10;99.90
6810;DHT22;3443;48.812;9.112;2023-02-22T08:05:37;5.30;99.90
6810;DHT22;3443;48.812;9.112;2023-02-22T08:08:04;5.40;99.90
6810;DHT22;3443;48.812;9.112;2023-02-22T08:10:30;5.50;99.90
6810;DHT22;3443;48.812;9.112;2023-02-22T08:12:56;5.60;99.90
6810;DHT22;3443;48.812;9.112;2023-02-22T08:15:27;5.70;99.90
6810;DHT22;3443;48.812;9.112;2023-02-22T08:17:54;5.90;99.90
6810;DHT22;3443;48.812;9.112;2023-02-22T08:20:20;6.10;99.90
6810;DHT22;3443;48.812;9.112;2023-02-22T08:22:46;6.20;99.90
6810;DHT22;3443;48.812;9.112;2023-02-22T08:25:13;6.40;99.90
6810;DHT22;3443;48.812;9.112;2023-02-22T08:27:40;6.60;99.90
6810;DHT22;3443;48.812;9.112;2023-02-22T08:30:06;6.90;99.90
6810;DHT22;3443;48.812;9.112;2023-02-22T08:32:33;7.00;99.90
6810;DHT22;3443;48.812;9.112;2023-02-22T08:35:00;7.30;99.90
6810;DHT22;3443;48.812;9.112;2023-02-22T08:37:26;7.40;99.90
6810;DHT22;3443;48.812;9.112;2023-02-22T08:39:52;7.60;99.90
6810;DHT22;3443;48.812;9.112;2023-02-22T08:42:18;7.70;99.90
6810;DHT22;3443;48.812;9.112;2023-02-22T08:44:43;7.80;99.90
6810;DHT22;3443;48.812;9.112;2023-02-22T08:47:09;8.00;99.90
6810;DHT22;3443;48.812;9.112;2023-02-22T08:49:34;8.10;99.90
6810;DHT22;3443;48.812;9.112;2023-02-22T08:52:00;8.10;99.90
6810;DHT22;3443;48.812;9.112;2023-02-22T08:54:26;8.30;99.90
6810;DHT22;3443;48.812;9.112;2023-02-22T08:56:51;8.50;99.90
6810;DHT22;3443;48.812;9.112;2023-02-22T08:59:17;8.70;99.90
6810;DHT22;3443;48.812;9.112;2023-02-22T09:01:42;8.90;99.90
6810;DHT22;3443;48.812;9.112;2023-02-22T09:04:08;8.90;99.90
6810;DHT22;3443;48.812;9.112;2023-02-22T09:06:33;9.00;99.90
6810;DHT22;3443;48.812;9.112;2023-02-22T09:08:59;9.10;99.90
6810;DHT22;3443;48.812;9.112;2023-02-22T09:11:25;9.10;99.90
6810;DHT22;3443;48.812;9.112;2023-02-22T09:13:51;9.20;99.90
6810;DHT22;3443;48.812;9.112;2023-02-22T09:16:17;9.30;99.90
6810;DHT22;3443;48.812;9.112;2023-02-22T09:18:43;9.40;99.90
6810;DHT22;3443;48.812;9.112;2023-02-22T09:21:09;9.40;99.90
6810;DHT22;3443;48.812;9.112;2023-02-22T09:23:34;9.40;99.90
6810;DHT22;3443;48.812;9.112;2023-02-22T09:26:00;9.50;99.90
6810;DHT22;3443;48.812;9.112;2023-02-22T09:28:26;9.50;99.90
6810;DHT22;3443;48.812;9.112;2023-02-22T09:30:52;9.60;99.90
6810;DHT22;3443;48.812;9.112;2023-02-22T09:33:19;9.80;99.90
6810;DHT22;3443;48.812;9.112;2023-02-22T09:35:47;9.90;99.90
6810;DHT22;3443;48.812;9.112;2023-02-22T09:38:17;10.00;99.90
6810;DHT22;3443;48.812;9.112;2023-02-22T09:40:47;10.10;99.90
6810;DHT22;3443;48.812;9.112;2023-02-22T09:43:47;10.40;99.90
6810;DHT22;3443;48.812;9.112;2023-02-22T09:46:32;10.60;99.90
6810;DHT22;3443;48.812;9.112;2023-02-22T09:49:19;10.80;99.90
6810;DHT22;3443;48.812;9.112;2023-02-22T09:52:07;11.00;99.90
6810;DHT22;3443;48.812;9.112;2023-02-22T09:54:51;11.10;99.90
6810;DHT22;3443;48.812;9.112;2023-02-22T09:57:28;11.10;99.90
6810;DHT22;3443;48.812;9.112;2023-02-22T10:05:36;11.10;99.90
6810;DHT22;3443;48.812;9.112;2023-02-22T10:08:08;11.20;99.90
6810;DHT22;3443;48.812;9.112;2023-02-22T10:10:37;11.10;99.90
6810;DHT22;3443;48.812;9.112;2023-02-22T10:21:13;11.50;99.90
6810;DHT22;3443;48.812;9.112;2023-02-22T10:26:24;11.90;99.90
6810;DHT22;3443;48.812;9.112;2023-02-22T10:28:59;12.00;99.90
6810;DHT22;3443;48.812;9.112;2023-02-22T10:31:31;12.00;99.90
6810;DHT22;3443;48.812;9.112;2023-02-22T10:34:14;12.30;99.90
6810;DHT22;3443;48.812;9.112;2023-02-22T10:36:42;12.30;99.90
6810;DHT22;3443;48.812;9.112;2023-02-22T10:39:30;12.40;99.90
6810;DHT22;3443;48.812;9.112;2023-02-22T10:42:00;12.40;99.90
6810;DHT22;3443;48.812;9.112;2023-02-22T10:44:34;12.30;99.90
6810;DHT22;3443;48.812;9.112;2023-02-22T10:47:02;12.20;99.90
6810;DHT22;3443;48.812;9.112;2023-02-22T10:49:35;12.10;99.90
6810;DHT22;3443;48.812;9.112;2023-02-22T10:52:02;12.10;99.90
6810;DHT22;3443;48.812;9.112;2023-02-22T10:54:35;12.00;99.90
6810;DHT22;3443;48.812;9.112;2023-02-22T10:57:03;12.10;99.90
6810;DHT22;3443;48.812;9.112;2023-02-22T10:59:34;12.20;99.90
6810;DHT22;3443;48.812;9.112;2023-02-22T11:02:18;12.30;99.90
6810;DHT22;3443;48.812;9.112;2023-02-22T11:04:52;12.30;99.90
6810;DHT22;3443;48.812;9.112;2023-02-22T11:12:34;12.50;99.90
6810;DHT22;3443;48.812;9.112;2023-02-22T11:17:45;12.50;99.90
6810;DHT22;3443;48.812;9.112;2023-02-22T11:22:54;12.70;99.90
6810;DHT22;3443;48.812;9.112;2023-02-22T11:25:41;12.80;99.90
6810;DHT22;3443;48.812;9.112;2023-02-22T11:28:27;12.70;99.90
6810;DHT22;3443;48.812;9.112;2023-02-22T11:31:19;12.80;99.90
6810;DHT22;3443;48.812;9.112;2023-02-22T11:33:57;13.00;99.90
6810;DHT22;3443;48.812;9.112;2023-02-22T11:36:41;13.10;99.90
6810;DHT22;3443;48.812;9.112;2023-02-22T11:39:26;13.10;99.90
6810;DHT22;3443;48.812;9.112;2023-02-22T11:41:54;13.10;99.90
6810;DHT22;3443;48.812;9.112;2023-02-22T11:44:31;13.10;99.90
6810;DHT22;3443;48.812;9.112;2023-02-22T11:46:59;13.10;99.90
6810;DHT22;3443;48.812;9.112;2023-02-22T11:49:39;13.20;99.90
6810;DHT22;3443;48.812;9.112;2023-02-22T11:54:56;13.20;99.90
6810;DHT22;3443;48.812;9.112;2023-02-22T11:58:12;13.10;99.90
6810;DHT22;3443;48.812;9.112;2023-02-22T12:01:04;12.90;99.90
6810;DHT22;3443;48.812;9.112;2023-02-22T12:06:33;12.90;99.90
6810;DHT22;3443;48.812;9.112;2023-02-22T12:20:21;12.70;99.90
6810;DHT22;3443;48.812;9.112;2023-02-22T12:25:36;12.90;99.90
6810;DHT22;3443;48.812;9.112;2023-02-22T12:28:20;12.90;99.90
6810;DHT22;3443;48.812;9.112;2023-02-22T12:33:45;13.20;99.90
6810;DHT22;3443;48.812;9.112;2023-02-22T12:36:16;13.40;99.90
6810;DHT22;3443;48.812;9.112;2023-02-22T12:38:48;13.50;99.90
6810;DHT22;3443;48.812;9.112;2023-02-22T12:44:29;13.70;99.90
6810;DHT22;3443;48.812;9.112;2023-02-22T12:46:57;13.80;99.90
6810;DHT22;3443;48.812;9.112;2023-02-22T12:55:00;14.10;99.90
6810;DHT22;3443;48.812;9.112;2023-02-22T13:00:21;14.40;99.90
6810;DHT22;3443;48.812;9.112;2023-02-22T13:03:04;14.50;99.90
6810;DHT22;3443;48.812;9.112;2023-02-22T13:05:37;14.30;99.90
6810;DHT22;3443;48.812;9.112;2023-02-22T13:08:14;14.30;99.90
6810;DHT22;3443;48.812;9.112;2023-02-22T13:11:00;14.30;99.90
6810;DHT22;3443;48.812;9.112;2023-02-22T13:16:30;14.30;99.90
6810;DHT22;3443;48.812;9.112;2023-02-22T13:19:29;14.30;99.90
6810;DHT22;3443;48.812;9.112;2023-02-22T13:22:17;14.20;99.90
6810;DHT22;3443;48.812;9.112;2023-02-22T13:33:23;14.40;99.90
6810;DHT22;3443;48.812;9.112;2023-02-22T13:36:13;14.30;99.90
6810;DHT22;3443;48.812;9.112;2023-02-22T13:38:53;14.30;99.90
6810;DHT22;3443;48.812;9.112;2023-02-22T13:41:46;14.20;99.90
6810;DHT22;3443;48.812;9.112;2023-02-22T13:50:14;13.70;99.90
6810;DHT22;3443;48.812;9.112;2023-02-22T13:52:43;13.70;99.90
6810;DHT22;3443;48.812;9.112;2023-02-22T13:55:17;13.60;99.90
6810;DHT22;3443;48.812;9.112;2023-02-22T13:57:45;13.60;99.90
6810;DHT22;3443;48.812;9.112;2023-02-22T14:03:03;13.40;99.90
6810;DHT22;3443;48.812;9.112;2023-02-22T14:05:47;13.40;99.90
6810;DHT22;3443;48.812;9.112;2023-02-22T14:10:48;13.40;99.90
6810;DHT22;3443;48.812;9.112;2023-02-22T14:13:19;13.40;99.90
6810;DHT22;3443;48.812;9.112;2023-02-22T14:18:43;13.30;99.90
6810;DHT22;3443;48.812;9.112;2023-02-22T14:21:18;13.20;99.90
6810;DHT22;3443;48.812;9.112;2023-02-22T14:23:52;13.20;99.90
6810;DHT22;3443;48.812;9.112;2023-02-22T14:26:28;13.30;99.90
6810;DHT22;3443;48.812;9.112;2023-02-22T14:36:35;13.30;99.90
6810;DHT22;3443;48.812;9.112;2023-02-22T14:39:26;13.20;99.90
6810;DHT22;3443;48.812;9.112;2023-02-22T14:47:54;13.30;99.90
6810;DHT22;3443;48.812;9.112;2023-02-22T14:55:45;13.20;99.90
6810;DHT22;3443;48.812;9.112;2023-02-22T14:58:17;13.10;99.90
6810;DHT22;3443;48.812;9.112;2023-02-22T15:00:47;13.10;99.90
6810;DHT22;3443;48.812;9.112;2023-02-22T15:05:43;13.10;99.90
6810;DHT22;3443;48.812;9.112;2023-02-22T15:08:11;13.10;99.90
6810;DHT22;3443;48.812;9.112;2023-02-22T15:10:50;13.10;99.90
6810;DHT22;3443;48.812;9.112;2023-02-22T15:13:25;13.10;99.90
6810;DHT22;3443;48.812;9.112;2023-02-22T15:18:37;13.10;99.90
6810;DHT22;3443;48.812;9.112;2023-02-22T15:21:10;13.10;99.90
6810;DHT22;3443;48.812;9.112;2023-02-22T15:23:57;13.10;99.90
6810;DHT22;3443;48.812;9.112;2023-02-22T15:26:32;13.10;99.90
6810;DHT22;3443;48.812;9.112;2023-02-22T15:29:07;13.10;99.90
6810;DHT22;3443;48.812;9.112;2023-02-22T15:31:35;13.10;99.90
6810;DHT22;3443;48.812;9.112;2023-02-22T15:34:19;13.10;99.90
6810;DHT22;3443;48.812;9.112;2023-02-22T15:36:50;13.10;99.90
6810;DHT22;3443;48.812;9.112;2023-02-22T15:39:32;13.10;99.90
6810;DHT22;3443;48.812;9.112;2023-02-22T15:42:09;13.00;99.90
6810;DHT22;3443;48.812;9.112;2023-02-22T15:44:40;13.00;99.90
6810;DHT22;3443;48.812;9.112;2023-02-22T15:47:18;12.90;99.90
6810;DHT22;3443;48.812;9.112;2023-02-22T15:49:44;12.80;99.90
6810;DHT22;3443;48.812;9.112;2023-02-22T15:52:21;12.80;99.90
6810;DHT22;3443;48.812;9.112;2023-02-22T15:54:50;12.70;99.90
6810;DHT22;3443;48.812;9.112;2023-02-22T15:57:25;12.70;99.90
6810;DHT22;3443;48.812;9.112;2023-02-22T15:59:54;12.60;99.90
6810;DHT22;3443;48.812;9.112;2023-02-22T16:02:38;12.60;99.90
6810;DHT22;3443;48.812;9.112;2023-02-22T16:05:09;12.60;99.90
6810;DHT22;3443;48.812;9.112;2023-02-22T16:07:38;12.60;99.90
6810;DHT22;3443;48.812;9.112;2023-02-22T16:10:05;12.50;99.90
6810;DHT22;3443;48.812;9.112;2023-02-22T16:12:34;12.50;99.90
6810;DHT22;3443;48.812;9.112;2023-02-22T16:15:00;12.50;99.90
6810;DHT22;3443;48.812;9.112;2023-02-22T16:17:33;12.50;99.90
6810;DHT22;3443;48.812;9.112;2023-02-22T16:22:44;12.30;99.90
6810;DHT22;3443;48.812;9.112;2023-02-22T16:27:47;12.20;99.90
6810;DHT22;3443;48.812;9.112;2023-02-22T16:32:43;12.00;99.90
6810;DHT22;3443;48.812;9.112;2023-02-22T16:35:09;12.00;99.90
6810;DHT22;3443;48.812;9.112;2023-02-22T16:37:44;12.00;99.90
6810;DHT22;3443;48.812;9.112;2023-02-22T16:40:20;11.90;99.90
6810;DHT22;3443;48.812;9.112;2023-02-22T16:42:47;11.80;99.90
6810;DHT22;3443;48.812;9.112;2023-02-22T16:45:16;11.70;99.90
6810;DHT22;3443;48.812;9.112;2023-02-22T16:47:42;11.50;99.90
6810;DHT22;3443;48.812;9.112;2023-02-22T16:50:09;11.50;99.90
6810;DHT22;3443;48.812;9.112;2023-02-22T16:52:38;11.40;99.90
6810;DHT22;3443;48.812;9.112;2023-02-22T16:55:09;11.40;99.90
6810;DHT22;3443;48.812;9.112;2023-02-22T16:57:37;11.30;99.90
6810;DHT22;3443;48.812;9.112;2023-02-22T17:00:04;11.20;99.90
6810;DHT22;3443;48.812;9.112;2023-02-22T17:02:37;11.10;99.90
6810;DHT22;3443;48.812;9.112;2023-02-22T17:05:03;11.00;99.90
6810;DHT22;3443;48.812;9.112;2023-02-22T17:07:28;10.90;99.90
6810;DHT22;3443;48.812;9.112;2023-02-22T17:09:56;10.90;99.90
6810;DHT22;3443;48.812;9.112;2023-02-22T17:12:26;10.90;99.90
6810;DHT22;3443;48.812;9.112;2023-02-22T17:14:52;10.80;99.90
6810;DHT22;3443;48.812;9.112;2023-02-22T17:17:18;10.80;99.90
6810;DHT22;3443;48.812;9.112;2023-02-22T17:19:44;10.80;99.90
6810;DHT22;3443;48.812;9.112;2023-02-22T17:22:20;10.80;99.90
6810;DHT22;3443;48.812;9.112;2023-02-22T17:24:46;10.70;99.90
6810;DHT22;3443;48.812;9.112;2023-02-22T17:27:12;10.60;99.90
6810;DHT22;3443;48.812;9.112;2023-02-22T17:29:37;10.50;99.90
6810;DHT22;3443;48.812;9.112;2023-02-22T17:32:05;10.40;99.90
6810;DHT22;3443;48.812;9.112;2023-02-22T17:34:31;10.40;99.90
6810;DHT22;3443;48.812;9.112;2023-02-22T17:36:57;10.30;99.90
6810;DHT22;3443;48.812;9.112;2023-02-22T17:39:22;10.20;99.90
6810;DHT22;3443;48.812;9.112;2023-02-22T17:41:48;10.10;99.90
6810;DHT22;3443;48.812;9.112;2023-02-22T17:44:19;10.00;99.90
6810;DHT22;3443;48.812;9.112;2023-02-22T17:46:44;9.90;99.90
6810;DHT22;3443;48.812;9.112;2023-02-22T17:49:10;9.80;99.90
6810;DHT22;3443;48.812;9.112;2023-02-22T17:51:39;9.70;99.90
6810;DHT22;3443;48.812;9.112;2023-02-22T17:54:05;9.70;99.90
6810;DHT22;3443;48.812;9.112;2023-02-22T17:56:31;9.60;99.90
6810;DHT22;3443;48.812;9.112;2023-02-22T17:58:57;9.60;99.90
6810;DHT22;3443;48.812;9.112;2023-02-22T18:01:26;9.50;99.90
6810;DHT22;3443;48.812;9.112;2023-02-22T18:03:53;9.50;99.90
6810;DHT22;3443;48.812;9.112;2023-02-22T18:06:21;9.50;99.90
6810;DHT22;3443;48.812;9.112;2023-02-22T18:08:47;9.50;99.90
6810;DHT22;3443;48.812;9.112;2023-02-22T18:11:16;9.40;99.90
6810;DHT22;3443;48.812;9.112;2023-02-22T18:13:41;9.40;99.90
6810;DHT22;3443;48.812;9.112;2023-02-22T18:16:07;9.40;99.90
6810;DHT22;3443;48.812;9.112;2023-02-22T18:18:35;9.30;99.90
6810;DHT22;3443;48.812;9.112;2023-02-22T18:21:01;9.30;99.90
6810;DHT22;3443;48.812;9.112;2023-02-22T18:23:30;9.40;99.90
6810;DHT22;3443;48.812;9.112;2023-02-22T18:25:57;9.40;99.90
6810;DHT22;3443;48.812;9.112;2023-02-22T18:28:23;9.40;99.90
6810;DHT22;3443;48.812;9.112;2023-02-22T18:30:49;9.40;99.90
6810;DHT22;3443;48.812;9.112;2023-02-22T18:33:16;9.40;99.90
6810;DHT22;3443;48.812;9.112;2023-02-22T18:35:46;9.40;99.90
6810;DHT22;3443;48.812;9.112;2023-02-22T18:38:14;9.30;99.90
6810;DHT22;3443;48.812;9.112;2023-02-22T18:40:57;9.30;99.90
6810;DHT22;3443;48.812;9.112;2023-02-22T18:43:23;9.20;99.90
6810;DHT22;3443;48.812;9.112;2023-02-22T18:45:48;9.20;99.90
6810;DHT22;3443;48.812;9.112;2023-02-22T18:48:14;9.20;99.90
6810;DHT22;3443;48.812;9.112;2023-02-22T18:50:39;9.20;99.90
6810;DHT22;3443;48.812;9.112;2023-02-22T18:53:05;9.10;99.90
6810;DHT22;3443;48.812;9.112;2023-02-22T18:55:30;9.10;99.90
6810;DHT22;3443;48.812;9.112;2023-02-22T18:57:58;9.10;99.90
6810;DHT22;3443;48.812;9.112;2023-02-22T19:00:26;9.10;99.90